createdAt,value
2018-07-22T00:02:16.161Z,4.92
2018-07-22T00:04:47.558Z,4.30
2018-07-22T00:07:19.259Z,4.42
2018-07-22T00:09:50.635Z,4.28
2018-07-22T00:12:22.184Z,4.33
2018-07-22T00:14:53.718Z,4.45
2018-07-22T00:17:25.183Z,4.80
2018-07-22T00:19:56.502Z,4.58
2018-07-22T00:22:27.830Z,4.37
2018-07-22T00:24:59.639Z,5.03
2018-07-22T00:27:30.932Z,4.30
2018-07-22T00:30:02.623Z,4.45
2018-07-22T00:32:33.839Z,4.28
2018-07-22T00:35:05.461Z,4.60
2018-07-22T00:37:37.274Z,4.47
2018-07-22T00:40:10.143Z,4.25
2018-07-22T00:42:41.775Z,4.30
2018-07-22T00:45:14.285Z,4.23
2018-07-22T00:47:45.753Z,4.20
2018-07-22T00:50:17.336Z,3.98
2018-07-22T00:52:48.230Z,4.05
2018-07-22T00:55:19.181Z,4.22
2018-07-22T00:57:50.719Z,4.50
2018-07-22T01:00:22.173Z,4.62
2018-07-22T01:02:53.578Z,4.47
2018-07-22T01:05:25.069Z,4.47
2018-07-22T01:07:56.614Z,4.50
2018-07-22T01:10:28.011Z,4.93
2018-07-22T01:12:59.320Z,4.50
2018-07-22T01:15:30.884Z,4.40
2018-07-22T01:18:02.295Z,4.45
2018-07-22T01:20:33.776Z,4.37
2018-07-22T01:23:05.205Z,4.50
2018-07-22T01:25:36.777Z,4.60
2018-07-22T01:28:08.448Z,4.17
2018-07-22T01:30:39.908Z,4.20
2018-07-22T01:33:10.836Z,4.40
2018-07-22T01:35:42.202Z,4.22
2018-07-22T01:38:13.620Z,4.03
2018-07-22T01:40:45.102Z,3.67
2018-07-22T01:43:16.531Z,3.87
2018-07-22T01:45:48.063Z,3.80
2018-07-22T01:48:19.257Z,4.00
2018-07-22T01:50:50.537Z,4.15
2018-07-22T01:53:21.995Z,4.17
2018-07-22T01:55:53.404Z,5.00
2018-07-22T01:58:24.995Z,5.23
2018-07-22T02:00:56.372Z,5.55
2018-07-22T02:03:28.059Z,5.03
2018-07-22T02:05:59.471Z,5.30
2018-07-22T02:08:30.743Z,5.67
2018-07-22T02:11:02.401Z,6.03
2018-07-22T02:13:33.658Z,5.53
2018-07-22T02:16:05.110Z,5.73
2018-07-22T02:18:36.582Z,6.03
2018-07-22T02:21:08.024Z,5.92
2018-07-22T02:23:39.542Z,6.43
2018-07-22T02:26:10.976Z,6.40
2018-07-22T02:28:42.467Z,6.60
2018-07-22T02:31:14.101Z,6.93
2018-07-22T02:33:45.571Z,8.07
2018-07-22T02:36:16.846Z,6.33
2018-07-22T02:38:48.074Z,7.08
2018-07-22T02:41:19.825Z,6.22
2018-07-22T02:43:51.192Z,6.65
2018-07-22T02:46:22.744Z,6.67
2018-07-22T02:48:54.379Z,7.90
2018-07-22T02:51:25.661Z,8.68
2018-07-22T02:53:57.404Z,8.43
2018-07-22T02:56:28.699Z,8.00
2018-07-22T02:59:03.996Z,7.80
2018-07-22T03:01:37.931Z,8.75
2018-07-22T03:04:10.230Z,7.78
2018-07-22T03:06:40.976Z,8.28
2018-07-22T03:09:12.394Z,8.23
2018-07-22T03:11:43.721Z,6.80
2018-07-22T03:14:15.228Z,6.72
2018-07-22T03:16:46.785Z,7.57
2018-07-22T03:19:18.393Z,7.12
2018-07-22T03:21:49.792Z,7.42
2018-07-22T03:24:21.376Z,7.85
2018-07-22T03:26:52.960Z,7.90
2018-07-22T03:29:24.257Z,7.65
2018-07-22T03:31:55.654Z,8.68
2018-07-22T03:34:26.936Z,8.30
2018-07-22T03:36:58.205Z,8.50
2018-07-22T03:39:30.018Z,8.73
2018-07-22T03:42:01.472Z,7.37
2018-07-22T03:44:32.945Z,7.87
2018-07-22T03:47:04.183Z,8.18
2018-07-22T03:49:35.475Z,7.27
2018-07-22T03:52:07.142Z,8.58
2018-07-22T03:54:38.468Z,8.78
2018-07-22T03:57:09.990Z,8.77
2018-07-22T03:59:41.434Z,9.03
2018-07-22T04:02:12.971Z,9.48
2018-07-22T04:04:43.740Z,8.83
2018-07-22T04:07:15.250Z,9.70
2018-07-22T04:09:46.763Z,8.70
2018-07-22T04:12:18.210Z,8.83
2018-07-22T04:14:49.571Z,8.80
2018-07-22T04:17:21.164Z,9.17
2018-07-22T04:19:52.872Z,8.10
2018-07-22T04:22:24.194Z,9.30
2018-07-22T04:24:55.755Z,8.60
2018-07-22T04:27:27.207Z,8.63
2018-07-22T04:29:58.777Z,9.53
2018-07-22T04:32:30.465Z,9.00
2018-07-22T04:35:01.974Z,7.97
2018-07-22T04:37:33.504Z,8.57
2018-07-22T04:40:05.179Z,8.20
2018-07-22T04:42:36.714Z,8.18
2018-07-22T04:45:09.109Z,7.55
2018-07-22T04:47:40.688Z,8.45
2018-07-22T04:50:12.188Z,7.83
2018-07-22T04:52:43.480Z,7.75
2018-07-22T04:55:15.010Z,7.55
2018-07-22T04:57:46.410Z,7.20
2018-07-22T05:00:17.890Z,7.50
2018-07-22T05:02:49.340Z,7.53
2018-07-22T05:05:20.787Z,8.00
2018-07-22T05:07:51.682Z,7.47
2018-07-22T05:10:22.999Z,8.05
2018-07-22T05:12:54.726Z,8.18
2018-07-22T05:15:26.103Z,8.13
2018-07-22T05:17:57.887Z,8.23
2018-07-22T05:20:29.237Z,7.93
2018-07-22T05:23:00.823Z,7.87
2018-07-22T05:25:32.207Z,8.05
2018-07-22T05:28:03.763Z,7.35
2018-07-22T05:30:35.390Z,8.78
2018-07-22T05:33:06.331Z,8.53
2018-07-22T05:35:37.774Z,8.50
2018-07-22T05:38:09.298Z,9.08
2018-07-22T05:40:40.870Z,8.75
2018-07-22T05:43:12.233Z,8.85
2018-07-22T05:45:43.794Z,8.40
2018-07-22T05:48:15.325Z,7.90
2018-07-22T05:50:46.986Z,7.67
2018-07-22T05:53:18.253Z,7.67
2018-07-22T05:55:49.707Z,8.28
2018-07-22T05:58:21.271Z,8.00
2018-07-22T06:00:52.892Z,7.80
2018-07-22T06:03:24.361Z,8.20
2018-07-22T06:05:55.896Z,7.92
2018-07-22T06:08:27.655Z,8.35
2018-07-22T06:10:59.172Z,7.70
2018-07-22T06:13:30.562Z,8.10
2018-07-22T06:16:01.936Z,7.70
2018-07-22T06:18:33.388Z,8.03
2018-07-22T06:21:04.893Z,8.05
2018-07-22T06:23:36.217Z,7.58
2018-07-22T06:26:08.093Z,7.75
2018-07-22T06:28:39.533Z,7.78
2018-07-22T06:31:11.099Z,7.95
2018-07-22T06:33:42.664Z,8.08
2018-07-22T06:36:14.224Z,7.95
2018-07-22T06:38:45.748Z,8.40
2018-07-22T06:41:17.333Z,7.55
2018-07-22T06:43:48.751Z,7.62
2018-07-22T06:46:20.472Z,6.80
2018-07-22T06:48:51.867Z,7.83
2018-07-22T06:51:23.688Z,8.20
2018-07-22T06:53:55.443Z,7.72
2018-07-22T06:56:27.396Z,6.83
2018-07-22T06:58:58.877Z,7.62
2018-07-22T07:01:30.428Z,6.45
2018-07-22T07:04:01.875Z,6.15
2018-07-22T07:06:33.192Z,5.55
2018-07-22T07:09:06.506Z,5.47
2018-07-22T07:11:38.185Z,5.45
2018-07-22T07:14:10.128Z,5.90
2018-07-22T07:16:41.758Z,5.92
2018-07-22T07:19:13.169Z,5.22
2018-07-22T07:21:44.478Z,5.58
2018-07-22T07:24:15.646Z,4.85
2018-07-22T07:26:47.336Z,4.90
2018-07-22T07:29:18.106Z,4.75
2018-07-22T07:31:49.352Z,4.87
2018-07-22T07:34:20.772Z,4.90
2018-07-22T07:36:52.268Z,5.22
2018-07-22T07:39:23.744Z,4.85
2018-07-22T07:41:55.234Z,19.20
2018-07-22T07:44:26.759Z,6.72
2018-07-22T07:46:58.380Z,7.15
2018-07-22T07:49:29.787Z,6.53
2018-07-22T07:52:01.253Z,6.55
2018-07-22T07:54:32.729Z,5.40
2018-07-22T07:57:04.109Z,5.00
2018-07-22T07:59:35.511Z,4.67
2018-07-22T08:02:06.980Z,5.05
2018-07-22T08:04:38.402Z,3.98
2018-07-22T08:07:09.962Z,4.42
2018-07-22T08:09:41.271Z,4.15
2018-07-22T08:12:13.001Z,4.50
2018-07-22T08:14:44.485Z,3.90
2018-07-22T08:17:16.082Z,4.28
2018-07-22T08:19:47.626Z,4.42
2018-07-22T08:22:19.034Z,4.00
2018-07-22T08:24:50.468Z,11.48
2018-07-22T08:27:21.768Z,6.95
2018-07-22T08:29:53.389Z,5.45
2018-07-22T08:32:24.859Z,5.35
2018-07-22T08:34:56.613Z,5.47
2018-07-22T08:37:28.477Z,5.83
2018-07-22T08:40:00.030Z,5.03
2018-07-22T08:42:31.604Z,4.80
2018-07-22T08:45:03.201Z,4.40
2018-07-22T08:47:34.714Z,4.33
2018-07-22T08:50:06.616Z,4.78
2018-07-22T08:52:38.132Z,7.55
2018-07-22T08:55:09.348Z,4.70
2018-07-22T08:57:40.228Z,4.03
2018-07-22T09:00:11.539Z,3.92
2018-07-22T09:02:43.223Z,3.70
2018-07-22T09:05:14.699Z,3.10
2018-07-22T09:07:46.046Z,3.58
2018-07-22T09:10:17.619Z,3.60
2018-07-22T09:12:49.119Z,3.35
2018-07-22T09:15:20.522Z,3.08
2018-07-22T09:17:51.879Z,3.10
2018-07-22T09:20:23.153Z,3.67
2018-07-22T09:22:54.822Z,5.80
2018-07-22T09:25:26.540Z,3.90
2018-07-22T09:27:57.928Z,3.00
2018-07-22T09:30:29.936Z,3.10
2018-07-22T09:33:01.290Z,2.80
2018-07-22T09:35:32.585Z,3.00
2018-07-22T09:38:04.197Z,6.12
2018-07-22T09:40:35.685Z,5.12
2018-07-22T09:43:07.089Z,5.95
2018-07-22T09:45:38.499Z,15.35
2018-07-22T09:48:10.178Z,2.75
2018-07-22T09:50:41.585Z,7.25
2018-07-22T09:53:12.913Z,2.98
2018-07-22T09:55:44.172Z,2.90
2018-07-22T09:58:15.702Z,2.62
2018-07-22T10:00:52.869Z,2.95
2018-07-22T10:03:25.197Z,3.15
2018-07-22T10:05:56.512Z,2.47
2018-07-22T10:08:28.104Z,2.70
2018-07-22T10:10:59.539Z,3.02
2018-07-22T10:13:30.909Z,2.58
2018-07-22T10:16:02.630Z,3.15
2018-07-22T10:18:34.187Z,3.22
2018-07-22T10:21:05.702Z,3.08
2018-07-22T10:23:37.182Z,5.50
2018-07-22T10:26:08.695Z,4.35
2018-07-22T10:28:40.048Z,3.15
2018-07-22T10:31:11.490Z,5.40
2018-07-22T10:33:42.523Z,3.47
2018-07-22T10:36:13.872Z,4.80
2018-07-22T10:38:45.339Z,5.60
2018-07-22T10:41:17.087Z,5.10
2018-07-22T10:43:48.681Z,4.00
2018-07-22T10:46:20.336Z,3.98
2018-07-22T10:48:51.834Z,3.62
2018-07-22T10:51:23.441Z,3.80
2018-07-22T10:53:54.969Z,3.98
2018-07-22T10:56:26.343Z,3.20
2018-07-22T10:58:58.095Z,3.45
2018-07-22T11:01:29.672Z,5.10
2018-07-22T11:04:01.203Z,3.98
2018-07-22T11:06:32.528Z,4.50
2018-07-22T11:09:04.598Z,5.47
2018-07-22T11:11:36.348Z,3.95
2018-07-22T11:14:08.076Z,4.25
2018-07-22T11:16:39.670Z,3.62
2018-07-22T11:19:11.321Z,4.20
2018-07-22T11:21:42.823Z,4.15
2018-07-22T11:24:14.752Z,4.33
2018-07-22T11:26:46.367Z,3.83
2018-07-22T11:29:17.780Z,4.20
2018-07-22T11:31:49.383Z,3.87
2018-07-22T11:34:21.165Z,4.12
2018-07-22T11:36:52.498Z,10.25
2018-07-22T11:39:23.966Z,4.03
2018-07-22T11:41:55.337Z,4.00
2018-07-22T11:44:26.806Z,4.67
2018-07-22T11:46:58.328Z,4.87
2018-07-22T11:49:29.686Z,4.42
2018-07-22T11:52:01.156Z,4.33
2018-07-22T11:54:32.975Z,4.17
2018-07-22T11:57:04.435Z,4.33
2018-07-22T11:59:35.963Z,4.85
2018-07-22T12:02:07.244Z,4.03
2018-07-22T12:04:38.704Z,4.90
2018-07-22T12:07:10.252Z,6.42
2018-07-22T12:09:41.696Z,4.08
2018-07-22T12:12:13.211Z,3.90
2018-07-22T12:14:44.844Z,4.37
2018-07-22T12:17:16.504Z,3.65
2018-07-22T12:19:47.943Z,4.05
2018-07-22T12:22:19.517Z,3.80
2018-07-22T12:24:50.729Z,3.90
2018-07-22T12:27:22.258Z,3.45
2018-07-22T12:29:53.811Z,3.60
2018-07-22T12:32:25.102Z,3.50
2018-07-22T12:34:56.654Z,3.55
2018-07-22T12:37:28.105Z,3.35
2018-07-22T12:39:59.606Z,3.65
2018-07-22T12:42:31.010Z,4.33
2018-07-22T12:45:02.396Z,4.08
2018-07-22T12:47:33.951Z,4.40
2018-07-22T12:50:05.517Z,4.50
2018-07-22T12:52:37.005Z,4.42
2018-07-22T12:55:08.420Z,4.10
2018-07-22T12:57:40.134Z,4.50
2018-07-22T13:00:11.509Z,4.70
2018-07-22T13:02:42.991Z,8.35
2018-07-22T13:05:14.643Z,19.67
2018-07-22T13:07:46.007Z,6.08
2018-07-22T13:10:17.494Z,5.00
2018-07-22T13:12:48.835Z,4.78
2018-07-22T13:15:20.315Z,5.10
2018-07-22T13:17:51.740Z,4.60
2018-07-22T13:20:23.183Z,4.70
2018-07-22T13:22:54.749Z,4.85
2018-07-22T13:25:26.519Z,4.17
2018-07-22T13:27:57.851Z,4.62
2018-07-22T13:30:29.415Z,4.50
2018-07-22T13:33:00.688Z,4.15
2018-07-22T13:35:32.222Z,4.12
2018-07-22T13:38:03.774Z,3.83
2018-07-22T13:40:34.985Z,3.90
2018-07-22T13:43:06.548Z,3.40
2018-07-22T13:45:38.072Z,3.65
2018-07-22T13:48:09.555Z,3.70
2018-07-22T13:50:40.984Z,3.85
2018-07-22T13:53:12.481Z,4.28
2018-07-22T13:55:43.825Z,4.30
2018-07-22T13:58:15.174Z,4.60
2018-07-22T14:00:46.606Z,4.28
2018-07-22T14:03:18.256Z,4.15
2018-07-22T14:05:49.684Z,4.50
2018-07-22T14:08:21.255Z,4.25
2018-07-22T14:10:52.726Z,4.60
2018-07-22T14:13:24.206Z,4.67
2018-07-22T14:15:55.898Z,4.50
2018-07-22T14:18:27.381Z,4.15
2018-07-22T14:20:58.390Z,4.25
2018-07-22T14:23:29.523Z,4.03
2018-07-22T14:26:00.968Z,3.62
2018-07-22T14:28:32.335Z,3.72
2018-07-22T14:31:04.107Z,3.80
2018-07-22T14:33:35.475Z,8.53
2018-07-22T14:36:06.751Z,4.67
2018-07-22T14:38:38.208Z,4.08
2018-07-22T14:41:09.752Z,4.03
2018-07-22T14:43:41.210Z,4.55
2018-07-22T14:46:12.747Z,3.58
2018-07-22T14:48:44.617Z,3.70
2018-07-22T14:51:16.129Z,4.25
2018-07-22T14:53:47.537Z,4.45
2018-07-22T14:56:18.881Z,4.20
2018-07-22T14:58:50.176Z,4.50
2018-07-22T15:01:21.729Z,4.35
2018-07-22T15:03:53.133Z,4.00
2018-07-22T15:06:24.645Z,4.30
2018-07-22T15:08:56.197Z,4.00
2018-07-22T15:11:27.727Z,4.50
2018-07-22T15:13:59.273Z,4.30
2018-07-22T15:16:30.548Z,4.10
2018-07-22T15:19:01.968Z,4.42
2018-07-22T15:21:33.635Z,4.42
2018-07-22T15:24:05.189Z,4.53
2018-07-22T15:26:36.743Z,4.58
2018-07-22T15:29:07.922Z,4.65
2018-07-22T15:31:39.404Z,5.20
2018-07-22T15:34:10.991Z,5.10
2018-07-22T15:36:42.317Z,5.70
2018-07-22T15:39:14.141Z,5.42
2018-07-22T15:41:45.568Z,5.10
2018-07-22T15:44:16.955Z,6.25
2018-07-22T15:46:48.373Z,5.65
2018-07-22T15:49:19.895Z,5.90
2018-07-22T15:51:51.211Z,5.47
2018-07-22T15:54:22.754Z,5.83
2018-07-22T15:56:54.169Z,5.30
2018-07-22T15:59:25.440Z,5.35
2018-07-22T16:01:56.934Z,4.92
2018-07-22T16:04:28.212Z,5.20
2018-07-22T16:06:59.817Z,4.45
2018-07-22T16:09:31.172Z,4.35
2018-07-22T16:12:02.690Z,4.97
2018-07-22T16:14:34.184Z,4.28
2018-07-22T16:17:05.787Z,4.45
2018-07-22T16:19:37.135Z,11.93
2018-07-22T16:22:08.809Z,5.55
2018-07-22T16:24:40.592Z,3.75
2018-07-22T16:27:12.269Z,3.80
2018-07-22T16:29:43.995Z,3.85
2018-07-22T16:32:15.527Z,4.12
2018-07-22T16:34:47.178Z,4.12
2018-07-22T16:37:18.974Z,4.80
2018-07-22T16:39:50.325Z,4.53
2018-07-22T16:42:21.694Z,4.65
2018-07-22T16:44:53.238Z,5.05
2018-07-22T16:47:24.772Z,5.08
2018-07-22T16:49:56.216Z,4.05
2018-07-22T16:52:27.746Z,4.50
2018-07-22T16:54:59.648Z,5.10
2018-07-22T16:57:31.598Z,4.40
2018-07-22T17:00:02.989Z,121.65
2018-07-22T17:02:34.458Z,59.13
2018-07-22T17:05:06.364Z,28.90
2018-07-22T17:07:37.882Z,69.12
2018-07-22T17:10:09.428Z,34.40
2018-07-22T17:12:41.032Z,22.65
2018-07-22T17:15:12.604Z,27.30
2018-07-22T17:17:44.216Z,41.60
2018-07-22T17:20:15.744Z,11.18
2018-07-22T17:22:47.373Z,13.80
2018-07-22T17:25:19.081Z,9.98
2018-07-22T17:27:50.725Z,10.98
2018-07-22T17:30:22.228Z,8.13
2018-07-22T17:32:53.752Z,7.25
2018-07-22T17:35:25.340Z,8.95
2018-07-22T17:37:56.796Z,9.88
2018-07-22T17:40:28.168Z,6.65
2018-07-22T17:42:59.653Z,6.87
2018-07-22T17:45:31.140Z,7.10
2018-07-22T17:48:02.788Z,7.95
2018-07-22T17:50:34.483Z,7.35
2018-07-22T17:53:06.027Z,8.30
2018-07-22T17:55:37.510Z,6.03
2018-07-22T17:58:09.135Z,7.28
2018-07-22T18:00:41.220Z,6.85
2018-07-22T18:03:26.219Z,7.75
2018-07-22T18:05:57.632Z,7.87
2018-07-22T18:08:29.220Z,8.60
2018-07-22T18:11:00.625Z,9.28
2018-07-22T18:13:32.081Z,8.60
2018-07-22T18:16:03.676Z,8.80
2018-07-22T18:18:35.123Z,8.15
2018-07-22T18:21:06.948Z,8.50
2018-07-22T18:23:38.574Z,11.18
2018-07-22T18:26:10.253Z,10.53
2018-07-22T18:28:42.311Z,9.75
2018-07-22T18:31:13.977Z,12.63
2018-07-22T18:33:45.465Z,14.03
2018-07-22T18:36:16.610Z,11.43
2018-07-22T18:38:48.358Z,11.90
2018-07-22T18:41:19.983Z,12.53
2018-07-22T18:43:51.835Z,12.45
2018-07-22T18:46:23.369Z,12.15
2018-07-22T18:48:54.915Z,24.65
2018-07-22T18:51:26.485Z,11.50
2018-07-22T18:53:58.250Z,11.20
2018-07-22T18:56:29.929Z,13.48
2018-07-22T18:59:01.668Z,14.10
2018-07-22T19:01:33.483Z,11.88
2018-07-22T19:04:05.208Z,13.00
2018-07-22T19:06:37.029Z,13.53
2018-07-22T19:09:11.203Z,13.50
2018-07-22T19:11:43.222Z,14.18
2018-07-22T19:14:14.792Z,14.47
2018-07-22T19:16:45.973Z,14.75
2018-07-22T19:19:18.032Z,14.95
2018-07-22T19:21:49.910Z,16.73
2018-07-22T19:24:21.797Z,16.40
2018-07-22T19:26:53.442Z,16.10
2018-07-22T19:29:25.506Z,17.45
2018-07-22T19:31:57.268Z,16.50
2018-07-22T19:34:29.150Z,16.42
2018-07-22T19:37:01.187Z,16.55
2018-07-22T19:39:33.721Z,17.13
2018-07-22T19:42:05.948Z,18.67
2018-07-22T19:44:37.990Z,42.98
2018-07-22T19:47:09.651Z,18.87
2018-07-22T19:49:41.314Z,19.47
2018-07-22T19:52:13.139Z,20.03
2018-07-22T19:54:45.171Z,21.43
2018-07-22T19:57:16.352Z,20.97
2018-07-22T19:59:48.396Z,20.10
2018-07-22T20:02:20.460Z,20.17
2018-07-22T20:04:52.374Z,21.12
2018-07-22T20:07:24.495Z,21.57
2018-07-22T20:09:56.265Z,21.13
2018-07-22T20:12:28.083Z,21.52
2018-07-22T20:14:59.914Z,21.85
2018-07-22T20:17:31.645Z,31.65
2018-07-22T20:20:03.776Z,38.53
2018-07-22T20:22:35.613Z,24.13
2018-07-22T20:25:07.902Z,23.27
2018-07-22T20:27:39.575Z,24.05
2018-07-22T20:30:11.523Z,24.27
2018-07-22T20:32:43.411Z,23.15
2018-07-22T20:35:15.234Z,23.07
2018-07-22T20:37:46.855Z,22.73
2018-07-22T20:40:18.303Z,23.67
2018-07-22T20:42:49.896Z,23.00
2018-07-22T20:45:21.452Z,22.23
2018-07-22T20:47:53.305Z,22.10
2018-07-22T20:50:25.147Z,21.67
2018-07-22T20:52:56.728Z,22.93
2018-07-22T20:55:28.192Z,21.57
2018-07-22T20:57:59.611Z,28.90
2018-07-22T21:00:31.492Z,24.50
2018-07-22T21:03:02.929Z,44.60
2018-07-22T21:05:34.683Z,25.77
2018-07-22T21:08:06.462Z,21.67
2018-07-22T21:10:38.380Z,22.55
2018-07-22T21:13:20.152Z,21.57
2018-07-22T21:15:51.644Z,21.35
2018-07-22T21:18:23.131Z,22.50
2018-07-22T21:20:54.691Z,21.90
2018-07-22T21:23:26.399Z,21.93
2018-07-22T21:25:57.911Z,20.77
2018-07-22T21:28:29.218Z,52.10
2018-07-22T21:31:00.800Z,23.67
2018-07-22T21:33:32.099Z,21.77
2018-07-22T21:36:03.692Z,21.73
2018-07-22T21:38:35.387Z,21.93
2018-07-22T21:41:07.156Z,21.48
2018-07-22T21:43:38.603Z,22.73
2018-07-22T21:46:10.087Z,22.57
2018-07-22T21:48:41.713Z,23.20
2018-07-22T21:51:13.013Z,21.97
2018-07-22T21:53:43.786Z,23.17
2018-07-22T21:56:15.199Z,22.85
2018-07-22T21:58:46.625Z,23.90
2018-07-22T22:01:18.355Z,22.50
2018-07-22T22:03:50.065Z,22.40
2018-07-22T22:06:21.565Z,22.70
2018-07-22T22:08:53.038Z,22.53
2018-07-22T22:11:24.507Z,22.90
2018-07-22T22:13:56.076Z,21.77
2018-07-22T22:16:27.964Z,22.30
2018-07-22T22:18:59.632Z,22.55
2018-07-22T22:21:31.136Z,21.65
2018-07-22T22:24:02.702Z,22.50
2018-07-22T22:26:34.218Z,22.03
2018-07-22T22:29:05.629Z,22.37
2018-07-22T22:31:37.134Z,21.40
2018-07-22T22:34:09.245Z,22.57
2018-07-22T22:36:40.838Z,22.00
2018-07-22T22:39:13.841Z,22.83
2018-07-22T22:41:45.371Z,21.53
2018-07-22T22:44:16.891Z,21.23
2018-07-22T22:46:48.685Z,21.30
2018-07-22T22:49:20.181Z,20.73
2018-07-22T22:51:51.612Z,19.87
2018-07-22T22:54:23.139Z,19.93
2018-07-22T22:56:54.841Z,20.23
2018-07-22T22:59:26.393Z,19.10
2018-07-22T23:01:57.973Z,18.07
2018-07-22T23:04:29.616Z,17.33
2018-07-22T23:07:01.049Z,16.70
2018-07-22T23:09:32.550Z,17.20
2018-07-22T23:12:04.001Z,17.33
2018-07-22T23:14:35.516Z,15.08
2018-07-22T23:17:07.013Z,16.90
2018-07-22T23:19:38.403Z,15.83
2018-07-22T23:22:09.890Z,15.83
2018-07-22T23:24:41.495Z,15.57
2018-07-22T23:27:13.023Z,14.77
2018-07-22T23:29:44.429Z,15.77
2018-07-22T23:32:16.168Z,17.73
2018-07-22T23:34:47.834Z,15.60
2018-07-22T23:37:19.380Z,15.13
2018-07-22T23:39:51.554Z,15.33
2018-07-22T23:42:22.902Z,14.53
2018-07-22T23:44:54.217Z,13.73
2018-07-22T23:47:25.716Z,14.47
2018-07-22T23:49:57.302Z,14.93
2018-07-22T23:52:28.912Z,14.23
2018-07-22T23:55:00.264Z,14.83
2018-07-22T23:57:31.755Z,15.17
